Time;durP1;ratioP1;P1;durP2;ratioP2;P2;SDS_P1;SDS_P2;PMS_P1;PMS_P2;Temp;Humidity;BMP_temperature;BMP_pressure;BME280_temperature;BME280_humidity;BME280_pressure;Samples;Min_cycle;Max_cycle;Signal;HPM_P1;HPM_P2
2023/08/10 00:02:15;;;;;;;3.10;1.30;;;;;;;14.11;93.23;101791.91;5000964;28;20049;-67
2023/08/10 00:04:41;;;;;;;5.85;1.50;;;;;;;14.05;93.44;101788.13;4997030;28;20516;-67
2023/08/10 00:07:06;;;;;;;2.70;1.23;;;;;;;14.01;93.78;101786.81;4995952;28;20066;-68
2023/08/10 00:09:32;;;;;;;5.18;1.23;;;;;;;13.92;93.96;101796.41;5002937;28;20044;-67
2023/08/10 00:11:57;;;;;;;7.97;1.20;;;;;;;13.81;94.21;101792.25;4997430;28;20046;-67
2023/08/10 00:14:23;;;;;;;3.22;1.48;;;;;;;13.75;94.58;101799.84;5002443;28;20041;-67
2023/08/10 00:16:48;;;;;;;2.22;1.30;;;;;;;13.65;95.22;101802.56;4998501;28;20048;-67
2023/08/10 00:19:14;;;;;;;3.58;1.35;;;;;;;13.61;96.10;101802.03;4997595;28;20046;-67
2023/08/10 00:21:39;;;;;;;2.70;1.23;;;;;;;13.59;96.71;101801.38;4993628;28;22572;-67
2023/08/10 00:24:05;;;;;;;3.15;1.45;;;;;;;13.61;96.99;101801.22;4996434;28;20077;-67
2023/08/10 00:26:30;;;;;;;5.75;1.90;;;;;;;13.63;97.12;101794.06;4993572;28;20037;-69
2023/08/10 00:28:56;;;;;;;3.95;1.55;;;;;;;13.63;97.29;101799.28;4996397;28;20529;-67
2023/08/10 00:31:21;;;;;;;3.10;1.17;;;;;;;13.55;97.61;101791.41;5005181;28;20672;-67
2023/08/10 00:33:47;;;;;;;5.78;1.27;;;;;;;13.47;98.12;101792.16;5021331;28;20108;-68
2023/08/10 00:36:12;;;;;;;2.38;1.30;;;;;;;13.42;98.59;101783.97;5012306;28;20045;-67
2023/08/10 00:38:39;;;;;;;3.28;1.30;;;;;;;13.36;99.05;101780.19;4994269;28;20041;-67
2023/08/10 00:41:06;;;;;;;3.47;1.23;;;;;;;13.35;99.73;101778.53;5014655;28;20463;-67
2023/08/10 00:43:32;;;;;;;8.48;1.45;;;;;;;13.36;99.92;101782.81;4996153;28;20029;-67
2023/08/10 00:45:59;;;;;;;3.22;1.40;;;;;;;13.40;100.00;101783.31;4994413;28;20141;-67
2023/08/10 00:48:26;;;;;;;3.42;1.55;;;;;;;13.44;100.00;101779.44;4999375;28;20025;-67
2023/08/10 00:50:52;;;;;;;3.97;1.40;;;;;;;13.49;100.00;101790.22;5002840;28;20507;-67
2023/08/10 00:53:18;;;;;;;5.25;1.27;;;;;;;13.53;100.00;101782.94;5004092;28;20034;-67
2023/08/10 00:55:46;;;;;;;4.75;1.42;;;;;;;13.56;100.00;101786.06;5005312;28;20411;-67
2023/08/10 00:58:12;;;;;;;6.00;1.52;;;;;;;13.60;100.00;101778.75;5001945;28;20038;-68
2023/08/10 01:00:38;;;;;;;4.32;1.58;;;;;;;13.61;100.00;101781.19;5007271;28;20053;-67
2023/08/10 01:03:04;;;;;;;2.50;1.52;;;;;;;13.58;100.00;101783.28;5004206;28;20117;-67
2023/08/10 01:05:37;;;;;;;3.90;1.48;;;;;;;13.58;100.00;101783.28;5006921;28;20050;-68
2023/08/10 01:08:17;;;;;;;7.43;1.80;;;;;;;13.61;100.00;101794.22;5000479;28;20044;-68
2023/08/10 01:10:50;;;;;;;3.90;1.52;;;;;;;13.63;100.00;101781.84;5000854;28;20121;-68
2023/08/10 01:13:37;;;;;;;3.17;1.48;;;;;;;13.65;100.00;101792.13;5018783;28;20107;-67
2023/08/10 01:16:08;;;;;;;2.60;1.30;;;;;;;13.63;100.00;101788.84;5025787;28;20412;-67
2023/08/10 01:18:35;;;;;;;5.50;1.83;;;;;;;13.63;100.00;101788.84;5026626;28;20075;-68
2023/08/10 01:21:07;;;;;;;4.03;1.90;;;;;;;13.65;100.00;101796.53;5023644;28;20134;-68
2023/08/10 01:23:40;;;;;;;4.88;2.00;;;;;;;13.62;100.00;101795.88;5025994;28;20043;-68
2023/08/10 01:26:08;;;;;;;3.03;1.60;;;;;;;13.60;100.00;101802.22;5017219;28;20087;-67
2023/08/10 01:28:34;;;;;;;6.93;1.90;;;;;;;13.59;100.00;101806.59;5025744;28;20056;-67
2023/08/10 01:31:00;;;;;;;3.05;1.95;;;;;;;13.61;100.00;101803.84;5017713;28;20504;-67
2023/08/10 01:33:26;;;;;;;3.42;1.77;;;;;;;13.58;100.00;101804.13;5003049;28;20031;-68
2023/08/10 01:35:52;;;;;;;7.78;2.17;;;;;;;13.61;100.00;101809.03;5005634;28;20052;-67
2023/08/10 01:38:17;;;;;;;5.78;2.67;;;;;;;13.63;100.00;101812.31;5004726;28;20059;-67
2023/08/10 01:40:43;;;;;;;5.53;1.70;;;;;;;13.65;100.00;101809.56;5006202;28;20037;-67
2023/08/10 01:43:09;;;;;;;7.07;2.03;;;;;;;13.65;100.00;101810.38;5001061;28;20030;-68
2023/08/10 01:45:34;;;;;;;7.38;1.95;;;;;;;13.64;100.00;101811.34;5004298;28;20508;-67
2023/08/10 01:48:06;;;;;;;3.28;1.88;;;;;;;13.60;100.00;101813.44;5003515;28;20547;-67
2023/08/10 01:50:38;;;;;;;3.83;1.83;;;;;;;13.57;100.00;101805.09;5003216;28;20044;-67
2023/08/10 01:53:08;;;;;;;3.00;1.80;;;;;;;13.55;100.00;101807.06;5000390;28;20060;-67
2023/08/10 01:55:33;;;;;;;4.70;1.92;;;;;;;13.52;100.00;101805.53;4998965;28;20124;-67
2023/08/10 01:57:59;;;;;;;4.25;1.85;;;;;;;13.53;100.00;101812.41;5002033;28;20108;-67
2023/08/10 02:00:24;;;;;;;6.40;1.95;;;;;;;13.55;100.00;101810.47;4997734;28;20092;-68
2023/08/10 02:02:50;;;;;;;3.33;1.85;;;;;;;13.56;100.00;101812.13;5019116;28;20044;-67
2023/08/10 02:05:15;;;;;;;3.75;1.70;;;;;;;13.59;100.00;101810.97;5004967;28;20143;-67
2023/08/10 02:07:42;;;;;;;5.97;1.92;;;;;;;13.60;100.00;101808.22;5002887;28;20045;-67
2023/08/10 02:10:11;;;;;;;4.57;1.88;;;;;;;13.59;100.00;101808.38;5005707;28;20064;-67
2023/08/10 02:12:37;;;;;;;3.67;1.90;;;;;;;13.55;100.00;101807.84;5002524;28;20042;-67
2023/08/10 02:15:03;;;;;;;7.47;1.80;;;;;;;13.53;100.00;101809.00;5005221;28;20080;-67
2023/08/10 02:17:35;;;;;;;3.65;1.80;;;;;;;13.49;100.00;101802.44;4997679;28;20121;-67
2023/08/10 02:20:04;;;;;;;5.68;1.42;;;;;;;13.47;100.00;101809.56;4997418;28;21040;-67
2023/08/10 02:22:31;;;;;;;5.78;1.90;;;;;;;13.45;100.00;101812.34;5013688;28;20944;-67
2023/08/10 02:24:56;;;;;;;3.22;1.80;;;;;;;13.46;100.00;101803.56;5003165;28;20049;-67
2023/08/10 02:27:21;;;;;;;5.78;2.15;;;;;;;13.46;100.00;101813.16;5002550;28;20432;-67
2023/08/10 02:29:47;;;;;;;3.85;1.65;;;;;;;13.46;100.00;101813.97;5005015;28;20439;-67
2023/08/10 02:32:16;;;;;;;6.18;2.05;;;;;;;13.47;100.00;101805.19;5002196;28;20045;-67
2023/08/10 02:34:43;;;;;;;4.05;1.80;;;;;;;13.48;100.00;101800.81;5016169;28;20022;-67
2023/08/10 02:37:08;;;;;;;3.88;2.20;;;;;;;13.49;100.00;101798.06;5002334;28;20042;-67
2023/08/10 02:39:34;;;;;;;6.13;1.63;;;;;;;13.50;100.00;101793.66;5002567;28;20088;-67
2023/08/10 02:41:59;;;;;;;3.97;1.70;;;;;;;13.51;100.00;101792.69;5001294;28;20117;-67
2023/08/10 02:44:25;;;;;;;5.35;1.63;;;;;;;13.51;100.00;101803.94;5002607;28;20496;-68
2023/08/10 02:46:51;;;;;;;8.73;1.80;;;;;;;13.50;100.00;101804.88;5000665;28;20428;-67
2023/08/10 02:49:17;;;;;;;3.58;1.77;;;;;;;13.48;100.00;101806.81;4999158;28;20038;-67
2023/08/10 02:51:42;;;;;;;2.92;1.42;;;;;;;13.44;100.00;101803.69;4996310;28;20537;-66
2023/08/10 02:54:08;;;;;;;4.88;1.60;;;;;;;13.40;100.00;101809.38;5001856;28;20065;-67
2023/08/10 02:56:33;;;;;;;7.30;2.00;;;;;;;13.37;100.00;101805.28;4998934;28;20053;-67
2023/08/10 02:58:59;;;;;;;9.07;1.77;;;;;;;13.36;100.00;101808.03;5002219;28;20475;-67
2023/08/10 03:01:24;;;;;;;6.57;1.70;;;;;;;13.32;100.00;101815.34;5001150;28;20044;-67
2023/08/10 03:03:50;;;;;;;2.80;1.42;;;;;;;13.29;100.00;101812.97;5000745;28;20026;-68
2023/08/10 03:06:16;;;;;;;3.85;1.70;;;;;;;13.25;100.00;101822.88;5001678;28;20111;-67
2023/08/10 03:08:41;;;;;;;4.18;2.10;;;;;;;13.20;100.00;101824.28;4997831;28;20030;-67
2023/08/10 03:11:07;;;;;;;6.13;2.20;;;;;;;13.17;100.00;101827.22;5000759;28;20509;-67
2023/08/10 03:13:32;;;;;;;3.90;1.60;;;;;;;13.14;100.00;101824.88;4998052;28;20034;-67
2023/08/10 03:15:58;;;;;;;2.55;1.35;;;;;;;13.11;100.00;101831.22;4999708;28;20038;-67
2023/08/10 03:18:24;;;;;;;4.85;1.70;;;;;;;13.09;100.00;101824.50;5003584;28;20025;-67
2023/08/10 03:20:50;;;;;;;5.80;2.15;;;;;;;13.04;100.00;101823.16;4997213;28;20030;-67
2023/08/10 03:23:15;;;;;;;2.97;1.88;;;;;;;13.01;100.00;101827.84;4996831;28;20527;-67
2023/08/10 03:25:41;;;;;;;2.28;1.40;;;;;;;13.00;100.00;101831.44;4994191;28;20046;-66
2023/08/10 03:28:07;;;;;;;4.43;1.90;;;;;;;12.95;99.86;101823.22;5001146;28;20034;-68
2023/08/10 03:30:32;;;;;;;6.13;1.80;;;;;;;12.85;100.00;101833.72;4997737;28;20084;-67
2023/08/10 03:32:58;;;;;;;5.68;2.30;;;;;;;12.79;100.00;101842.91;5000028;28;20022;-71
2023/08/10 03:35:24;;;;;;;4.00;1.90;;;;;;;12.78;100.00;101840.44;4992781;28;20047;-67
2023/08/10 03:37:49;;;;;;;7.82;2.20;;;;;;;12.73;100.00;101846.06;5003600;28;20785;-68
2023/08/10 03:40:15;;;;;;;3.85;1.70;;;;;;;12.70;100.00;101837.75;5000487;28;20033;-67
2023/08/10 03:42:40;;;;;;;3.92;1.55;;;;;;;12.68;100.00;101843.09;4998937;28;20029;-67
2023/08/10 03:45:08;;;;;;;3.00;1.90;;;;;;;12.65;100.00;101840.78;4995450;28;20065;-67
2023/08/10 03:47:33;;;;;;;4.95;1.92;;;;;;;12.61;100.00;101842.84;5013804;28;20077;-68
2023/08/10 03:49:59;;;;;;;4.65;2.25;;;;;;;12.57;100.00;101840.69;4996443;28;20029;-67
2023/08/10 03:52:26;;;;;;;6.05;2.35;;;;;;;12.57;100.00;101848.50;5016999;28;20033;-67
2023/08/10 03:54:51;;;;;;;7.45;2.67;;;;;;;12.57;100.00;101853.69;5019464;28;20033;-66
2023/08/10 03:57:17;;;;;;;4.25;1.85;;;;;;;12.51;100.00;101849.88;5000057;28;20970;-67
2023/08/10 03:59:45;;;;;;;5.35;2.50;;;;;;;12.45;100.00;101848.69;4997119;28;20034;-67
2023/08/10 04:02:10;;;;;;;4.95;2.00;;;;;;;12.40;100.00;101856.09;4999938;28;20038;-67
2023/08/10 04:04:36;;;;;;;4.15;2.17;;;;;;;12.39;100.00;101856.22;4997535;28;20033;-67
2023/08/10 04:07:01;;;;;;;5.95;2.15;;;;;;;12.39;100.00;101858.81;5002472;28;20037;-66
2023/08/10 04:09:27;;;;;;;6.93;2.90;;;;;;;12.39;100.00;101858.81;5001524;28;20022;-67
2023/08/10 04:11:53;;;;;;;5.18;2.33;;;;;;;12.38;100.00;101860.59;5001822;28;20442;-67
2023/08/10 04:14:18;;;;;;;4.55;2.50;;;;;;;12.39;100.00;101866.63;4997372;28;20026;-67
2023/08/10 04:16:45;;;;;;;4.10;2.10;;;;;;;12.38;100.00;101865.81;4994220;28;20038;-68
2023/08/10 04:19:10;;;;;;;5.88;2.47;;;;;;;12.35;100.00;101866.09;4999588;28;20038;-67
2023/08/10 04:21:36;;;;;;;7.38;2.90;;;;;;;12.35;100.00;101870.47;5011021;28;20088;-67
2023/08/10 04:24:01;;;;;;;7.50;2.63;;;;;;;12.35;100.00;101870.47;5024231;28;20041;-67
2023/08/10 04:26:27;;;;;;;4.88;2.30;;;;;;;12.34;100.00;101872.25;5023617;28;20034;-67
2023/08/10 04:28:52;;;;;;;6.03;2.20;;;;;;;12.35;100.00;101870.47;5024478;28;20041;-67
2023/08/10 04:31:18;;;;;;;8.85;2.97;;;;;;;12.28;100.00;101872.81;5027181;28;20052;-66
2023/08/10 04:33:43;;;;;;;6.22;2.35;;;;;;;12.22;100.00;101868.19;5021508;28;20491;-67
2023/08/10 04:36:08;;;;;;;4.18;2.33;;;;;;;12.19;100.00;101869.28;5021924;28;20048;-67
2023/08/10 04:38:35;;;;;;;5.65;2.10;;;;;;;12.17;100.00;101868.59;5022164;28;20089;-67
2023/08/10 04:41:00;;;;;;;4.85;2.40;;;;;;;12.16;100.00;101873.94;5026983;28;20041;-67
2023/08/10 04:43:26;;;;;;;3.22;2.00;;;;;;;12.15;100.00;101873.13;5029702;28;20041;-67
2023/08/10 04:45:51;;;;;;;6.43;2.55;;;;;;;12.20;100.00;101875.28;5026404;28;20045;-67
2023/08/10 04:48:17;;;;;;;5.65;2.55;;;;;;;12.23;100.00;101867.22;5019968;28;20044;-67
2023/08/10 04:50:42;;;;;;;5.45;2.35;;;;;;;12.27;100.00;101879.78;5020315;28;20046;-67
2023/08/10 04:53:08;;;;;;;9.38;2.65;;;;;;;12.32;100.00;101881.16;5025360;28;20029;-68
2023/08/10 04:55:33;;;;;;;6.55;2.40;;;;;;;12.31;100.00;101885.53;5026391;28;20107;-67
2023/08/10 04:57:58;;;;;;;5.95;2.58;;;;;;;12.31;100.00;101877.72;5023018;28;20025;-67
2023/08/10 05:00:24;;;;;;;7.05;3.60;;;;;;;12.30;100.00;101876.13;5025344;28;20075;-67
2023/08/10 05:02:53;;;;;;;7.45;2.65;;;;;;;12.31;100.00;101879.53;5024195;28;20468;-67
2023/08/10 05:05:18;;;;;;;4.47;2.60;;;;;;;12.31;100.00;101876.91;5021704;28;20030;-67
2023/08/10 05:07:44;;;;;;;6.15;2.58;;;;;;;12.32;100.00;101868.97;5023196;28;20040;-67
2023/08/10 05:10:10;;;;;;;11.95;2.78;;;;;;;12.38;100.00;101865.00;5021102;28;20033;-67
2023/08/10 05:12:37;;;;;;;4.50;2.55;;;;;;;12.41;100.00;101867.28;5024371;28;20045;-67
2023/08/10 05:15:04;;;;;;;5.35;2.88;;;;;;;12.42;100.00;101866.34;5021940;28;20060;-67
2023/08/10 05:17:30;;;;;;;4.13;2.58;;;;;;;12.45;100.00;101866.88;5023584;28;20528;-67
2023/08/10 05:19:56;;;;;;;7.85;2.58;;;;;;;12.50;100.00;101865.63;5023017;28;20063;-67
2023/08/10 05:22:21;;;;;;;7.80;2.38;;;;;;;12.52;100.00;101863.72;5023079;28;20041;-67
2023/08/10 05:24:47;;;;;;;5.10;2.40;;;;;;;12.57;100.00;101864.91;5020578;28;20064;-67
2023/08/10 05:27:12;;;;;;;8.70;2.80;;;;;;;12.62;100.00;101861.88;5021910;28;20045;-67
2023/08/10 05:29:38;;;;;;;3.72;2.38;;;;;;;12.66;100.00;101869.28;5023820;28;20029;-67
2023/08/10 05:32:04;;;;;;;4.63;2.70;;;;;;;12.70;100.00;101869.81;5023103;28;20424;-67
2023/08/10 05:34:29;;;;;;;6.10;2.55;;;;;;;12.74;100.00;101873.75;5026080;28;20048;-67
2023/08/10 05:36:54;;;;;;;4.53;2.53;;;;;;;12.78;100.00;101879.50;5022122;28;20036;-67
2023/08/10 05:39:20;;;;;;;22.33;3.78;;;;;;;12.81;100.00;101885.22;5025984;28;20041;-67
2023/08/10 05:41:45;;;;;;;6.32;2.65;;;;;;;12.84;100.00;101877.13;5022683;28;20071;-67
2023/08/10 05:44:12;;;;;;;14.18;2.88;;;;;;;12.89;100.00;101871.50;5024060;28;20040;-67
2023/08/10 05:46:38;;;;;;;6.00;2.72;;;;;;;12.93;100.00;101879.84;5022325;28;20166;-67
2023/08/10 05:49:03;;;;;;;4.25;2.63;;;;;;;12.98;100.00;101878.44;5027680;28;20415;-67
2023/08/10 05:51:29;;;;;;;7.85;3.05;;;;;;;13.02;100.00;101884.97;5024130;28;20524;-67
2023/08/10 05:53:54;;;;;;;4.68;2.75;;;;;;;13.07;100.00;101879.31;5025329;28;20029;-67
2023/08/10 05:56:20;;;;;;;7.65;3.20;;;;;;;13.11;100.00;101872.03;5021616;28;20046;-67
2023/08/10 05:58:45;;;;;;;8.02;3.30;;;;;;;13.17;100.00;101872.28;5023703;28;20029;-68
2023/08/10 06:01:11;;;;;;;6.03;3.25;;;;;;;13.27;100.00;101874.81;5025423;28;20033;-68
2023/08/10 06:03:37;;;;;;;7.88;3.40;;;;;;;13.47;100.00;101872.09;5026510;28;20491;-67
2023/08/10 06:06:06;;;;;;;9.48;3.20;;;;;;;13.72;100.00;101879.19;5022523;28;20068;-67
2023/08/10 06:08:33;;;;;;;6.72;2.75;;;;;;;14.00;100.00;101864.22;5020201;28;20391;-67
2023/08/10 06:11:00;;;;;;;8.80;3.10;;;;;;;14.32;100.00;101865.41;5021004;28;20403;-67
2023/08/10 06:13:25;;;;;;;5.10;2.47;;;;;;;14.63;99.91;101875.38;5020041;28;20144;-68
2023/08/10 06:15:51;;;;;;;6.90;2.67;;;;;;;14.93;96.07;101875.81;5021833;28;20159;-67
2023/08/10 06:18:16;;;;;;;6.47;2.88;;;;;;;15.23;94.43;101877.03;5025716;28;20033;-67
2023/08/10 06:20:42;;;;;;;7.72;2.30;;;;;;;15.53;93.46;101877.41;5022357;28;20033;-67
2023/08/10 06:23:07;;;;;;;7.25;2.42;;;;;;;15.79;90.63;101881.69;5021331;28;20610;-67
2023/08/10 06:25:33;;;;;;;7.55;2.08;;;;;;;15.99;89.94;101880.34;5026664;28;20057;-68
2023/08/10 06:27:59;;;;;;;7.53;2.40;;;;;;;16.19;88.55;101877.38;5019935;28;20028;-68
2023/08/10 06:30:25;;;;;;;3.63;1.42;;;;;;;16.39;85.78;101873.41;5031757;28;20127;-67
2023/08/10 06:32:51;;;;;;;5.15;1.55;;;;;;;16.63;84.52;101875.13;5021427;28;20116;-68
2023/08/10 06:35:18;;;;;;;5.25;1.58;;;;;;;16.79;82.30;101866.38;5021488;28;20064;-68
2023/08/10 06:37:44;;;;;;;8.23;1.27;;;;;;;16.95;80.87;101869.94;5021800;28;20450;-67
2023/08/10 06:40:10;;;;;;;17.55;6.57;;;;;;;17.10;78.31;101862.97;5019245;28;20042;-68
2023/08/10 06:42:37;;;;;;;7.93;1.85;;;;;;;17.25;75.08;101873.50;5021160;28;20064;-68
2023/08/10 06:45:09;;;;;;;3.65;0.85;;;;;;;17.30;72.65;101874.63;5017284;28;20040;-67
2023/08/10 06:47:35;;;;;;;6.80;1.27;;;;;;;17.13;72.92;101875.72;5017538;28;20025;-67
2023/08/10 06:50:01;;;;;;;3.85;0.90;;;;;;;17.00;72.73;101875.47;5021035;28;20115;-68
2023/08/10 06:52:26;;;;;;;3.38;1.00;;;;;;;16.90;73.42;101880.94;5020266;28;20069;-68
2023/08/10 06:54:52;;;;;;;4.28;1.08;;;;;;;16.77;74.42;101881.44;5022335;28;23045;-68
2023/08/10 06:57:21;;;;;;;5.50;1.08;;;;;;;16.68;75.82;101890.31;5020549;28;20120;-68
2023/08/10 06:59:47;;;;;;;3.50;1.38;;;;;;;16.67;77.70;101884.28;5024415;28;20029;-68
2023/08/10 07:02:18;;;;;;;3.33;0.85;;;;;;;16.73;79.36;101877.53;5019489;28;20080;-68
2023/08/10 07:04:45;;;;;;;1.67;0.88;;;;;;;17.00;78.72;101880.72;5020936;28;20133;-68
2023/08/10 07:07:12;;;;;;;6.28;1.38;;;;;;;17.28;75.04;101881.03;5019548;28;20111;-68
2023/08/10 07:09:37;;;;;;;7.78;0.90;;;;;;;17.59;73.02;101873.09;5023430;28;20768;-68
2023/08/10 07:12:04;;;;;;;3.97;1.00;;;;;;;17.98;72.08;101872.13;5021346;28;20043;-68
2023/08/10 07:14:29;;;;;;;2.88;0.80;;;;;;;18.63;70.03;101864.53;5022424;28;20033;-68
2023/08/10 07:16:55;;;;;;;3.25;0.80;;;;;;;19.39;66.57;101856.25;5018872;28;20036;-68
2023/08/10 07:19:20;;;;;;;3.10;0.70;;;;;;;20.16;64.91;101849.34;5023340;28;20028;-68
2023/08/10 07:21:46;;;;;;;6.10;1.50;;;;;;;20.75;60.65;101853.28;5017886;28;20404;-68
2023/08/10 07:24:12;;;;;;;4.15;0.80;;;;;;;21.17;56.59;101846.06;5020142;28;20069;-68
2023/08/10 07:26:37;;;;;;;3.53;1.05;;;;;;;21.56;53.17;101849.75;5018663;28;20119;-69
2023/08/10 07:29:03;;;;;;;3.65;0.70;;;;;;;21.97;51.13;101848.72;5023663;28;20148;-69
2023/08/10 07:31:31;;;;;;;3.40;0.80;;;;;;;22.16;46.35;101842.56;5022159;28;20491;-69
2023/08/10 07:33:57;;;;;;;4.47;0.77;;;;;;;22.53;44.77;101847.34;5020612;28;20076;-68
2023/08/10 07:36:22;;;;;;;4.03;0.85;;;;;;;22.59;42.69;101851.78;5018224;28;20064;-69
2023/08/10 07:38:48;;;;;;;4.85;1.15;;;;;;;22.95;45.77;101855.66;5017891;28;20033;-68
2023/08/10 07:41:13;;;;;;;3.70;0.57;;;;;;;23.12;43.87;101853.31;5022738;28;20033;-68
2023/08/10 07:43:39;;;;;;;1.88;0.75;;;;;;;23.39;42.85;101853.91;5026104;28;20033;-69
2023/08/10 07:46:04;;;;;;;6.25;0.90;;;;;;;23.41;40.94;101857.16;5019096;28;20037;-69
2023/08/10 07:48:30;;;;;;;2.20;0.75;;;;;;;23.60;41.41;101862.50;5023808;28;20041;-69
2023/08/10 07:50:56;;;;;;;4.75;0.80;;;;;;;23.71;42.09;101861.78;5018707;28;20053;-69
2023/08/10 07:53:21;;;;;;;3.33;0.82;;;;;;;23.84;41.45;101856.41;5015791;28;20120;-69
2023/08/10 07:55:46;;;;;;;5.25;1.42;;;;;;;23.97;41.34;101858.09;5023133;28;20103;-69
2023/08/10 07:58:14;;;;;;;2.85;0.80;;;;;;;24.10;41.40;101857.16;5023637;28;20029;-69
2023/08/10 08:00:41;;;;;;;2.50;0.93;;;;;;;23.78;40.39;101848.50;5017657;28;20995;-68
2023/08/10 08:03:08;;;;;;;4.65;1.15;;;;;;;23.81;43.12;101856.03;5023222;28;20068;-69
2023/08/10 08:05:37;;;;;;;4.63;0.70;;;;;;;24.07;40.94;101847.81;5018474;28;20129;-69
2023/08/10 08:08:04;;;;;;;2.97;0.70;;;;;;;24.32;40.98;101848.75;5023053;28;20021;-69
2023/08/10 08:10:30;;;;;;;2.65;0.95;;;;;;;24.37;41.64;101846.25;5020945;28;20492;-70
2023/08/10 08:12:56;;;;;;;3.22;0.75;;;;;;;24.71;41.44;101846.66;5025541;28;20025;-69
2023/08/10 08:15:21;;;;;;;3.97;0.90;;;;;;;24.96;40.54;101847.31;5021938;28;20066;-69
2023/08/10 08:18:24;;;;;;;2.97;0.82;;;;;;;24.98;38.62;101855.06;5022537;28;20037;-69
2023/08/10 08:20:49;;;;;;;1.87;0.87;;;;;;;25.14;39.97;101849.06;5017042;28;20041;-69
2023/08/10 08:23:14;;;;;;;5.13;0.63;;;;;;;25.20;39.96;101852.66;5023368;28;20450;-69
2023/08/10 08:25:40;;;;;;;3.65;0.93;;;;;;;25.18;39.07;101854.72;5021556;28;20060;-69
2023/08/10 08:28:05;;;;;;;5.55;1.00;;;;;;;25.27;39.46;101856.03;5020863;28;20033;-70
2023/08/10 08:30:31;;;;;;;1.23;0.60;;;;;;;25.50;38.99;101851.78;5023154;28;20037;-70
2023/08/10 08:32:57;;;;;;;3.28;0.75;;;;;;;25.72;38.92;101850.19;5017828;28;20412;-69
2023/08/10 08:35:24;;;;;;;3.13;0.88;;;;;;;25.57;38.04;101852.50;5015285;28;20393;-68
2023/08/10 08:37:51;;;;;;;2.63;0.73;;;;;;;25.58;38.64;101846.97;5020202;28;20398;-69
2023/08/10 08:40:16;;;;;;;3.83;0.65;;;;;;;25.95;38.81;101845.91;5020770;28;20029;-70
2023/08/10 08:42:45;;;;;;;1.25;0.73;;;;;;;25.75;38.93;101843.59;5022198;28;20044;-70
2023/08/10 08:45:11;;;;;;;4.70;1.40;;;;;;;25.34;38.97;101848.78;5019471;28;20076;-69
2023/08/10 08:47:37;;;;;;;3.72;1.08;;;;;;;25.49;39.42;101829.75;5021815;28;20468;-69
2023/08/10 08:50:02;;;;;;;1.98;0.80;;;;;;;25.82;39.43;101825.69;5020526;28;20037;-69
2023/08/10 08:52:29;;;;;;;3.97;1.42;;;;;;;26.09;40.10;101826.03;5015982;28;20037;-69
2023/08/10 08:54:58;;;;;;;3.58;1.33;;;;;;;26.36;39.05;101814.84;5022552;28;20040;-70
2023/08/10 08:57:23;;;;;;;8.90;0.95;;;;;;;25.95;38.68;101822.78;5022033;28;20033;-69
2023/08/10 08:59:48;;;;;;;5.10;0.98;;;;;;;25.90;38.68;101820.03;5024004;28;20550;-69
2023/08/10 09:02:14;;;;;;;7.57;1.25;;;;;;;25.66;40.17;101821.91;5015841;28;21282;-69
2023/08/10 09:04:40;;;;;;;3.35;0.98;;;;;;;25.80;39.48;101820.59;5022129;28;22100;-69
2023/08/10 09:07:06;;;;;;;3.55;0.90;;;;;;;25.51;40.32;101824.22;5018516;28;20036;-69
2023/08/10 09:09:32;;;;;;;8.38;1.58;;;;;;;25.04;41.18;101815.16;5019764;28;20605;-69
2023/08/10 09:11:57;;;;;;;3.88;1.20;;;;;;;24.95;41.06;101815.72;5021108;28;20168;-70
2023/08/10 09:14:23;;;;;;;1.92;0.63;;;;;;;25.30;41.89;101818.44;5024984;28;20036;-69
2023/08/10 09:16:48;;;;;;;4.95;0.95;;;;;;;25.78;39.96;101811.25;5022731;28;20045;-69
2023/08/10 09:19:14;;;;;;;2.85;1.17;;;;;;;25.45;41.08;101813.47;5019872;28;20712;-69
2023/08/10 09:21:40;;;;;;;3.28;1.20;;;;;;;25.49;40.17;101813.03;5022549;28;21626;-69
2023/08/10 09:24:08;;;;;;;6.38;1.10;;;;;;;25.69;40.17;101807.34;5024531;28;20643;-70
2023/08/10 09:26:34;;;;;;;2.92;1.00;;;;;;;25.52;40.21;101801.94;5023748;28;20090;-69
2023/08/10 09:28:59;;;;;;;2.10;1.08;;;;;;;25.87;41.49;101812.50;5025446;28;20041;-70
2023/08/10 09:31:27;;;;;;;4.28;1.00;;;;;;;26.11;39.99;101815.16;5022269;28;20053;-69
2023/08/10 09:33:57;;;;;;;6.07;1.10;;;;;;;26.16;40.95;101807.25;5021339;28;20108;-69
2023/08/10 09:36:25;;;;;;;6.10;0.98;;;;;;;26.14;40.75;101818.13;5015494;28;20048;-69
2023/08/10 09:38:52;;;;;;;5.22;1.85;;;;;;;26.38;41.53;101816.19;5021404;28;20033;-70
2023/08/10 09:41:20;;;;;;;5.32;1.38;;;;;;;26.46;40.94;101819.53;5021203;28;20072;-69
2023/08/10 09:43:46;;;;;;;5.03;1.13;;;;;;;26.35;40.73;101816.69;5027707;28;20052;-69
2023/08/10 09:46:14;;;;;;;3.50;1.17;;;;;;;26.10;40.77;101814.34;5022321;28;20037;-69
2023/08/10 09:48:44;;;;;;;2.55;1.10;;;;;;;26.02;40.99;101806.75;5022629;28;20061;-70
2023/08/10 09:51:11;;;;;;;5.28;1.55;;;;;;;25.93;41.57;101811.59;5018911;28;20038;-69
2023/08/10 09:53:37;;;;;;;6.38;1.30;;;;;;;26.09;39.90;101809.25;5022036;28;20037;-69
2023/08/10 09:56:07;;;;;;;3.50;1.20;;;;;;;25.94;41.31;101815.88;5025814;28;20509;-69
2023/08/10 09:58:38;;;;;;;3.28;1.35;;;;;;;26.25;41.65;101808.50;5030579;28;20037;-70
2023/08/10 10:01:05;;;;;;;7.00;1.60;;;;;;;26.11;40.52;101817.81;5021396;28;20129;-71
2023/08/10 10:03:32;;;;;;;6.15;1.20;;;;;;;25.89;40.41;101822.91;5026744;28;20064;-69
2023/08/10 10:05:58;;;;;;;1.77;0.80;;;;;;;26.01;40.03;101818.41;5026335;28;20037;-69
2023/08/10 10:08:26;;;;;;;2.13;0.80;;;;;;;26.06;39.07;101809.72;5021756;28;20127;-69
2023/08/10 10:10:56;;;;;;;6.63;1.40;;;;;;;25.61;40.45;101819.13;5022928;28;20046;-70
2023/08/10 10:13:21;;;;;;;5.30;1.92;;;;;;;25.20;41.26;101818.16;5026288;28;20608;-70
2023/08/10 10:15:48;;;;;;;2.63;1.00;;;;;;;25.75;40.92;101809.88;5024459;28;20044;-69
2023/08/10 10:18:14;;;;;;;3.10;1.33;;;;;;;26.06;41.38;101809.72;5026210;28;20033;-70
2023/08/10 10:20:42;;;;;;;2.42;0.90;;;;;;;26.08;40.82;101807.66;5021959;28;20037;-69
2023/08/10 10:23:21;;;;;;;3.22;0.98;;;;;;;25.97;42.75;101803.97;5018676;28;20041;-70
2023/08/10 10:26:00;;;;;;;8.82;1.23;;;;;;;26.13;42.93;101807.75;5025847;28;20037;-70
2023/08/10 10:28:31;;;;;;;3.00;1.10;;;;;;;26.44;41.13;101803.00;5021962;28;20533;-69
2023/08/10 10:31:08;;;;;;;9.45;2.10;;;;;;;26.53;41.09;101804.25;5022900;28;20515;-69
2023/08/10 10:33:34;;;;;;;3.55;1.27;;;;;;;26.37;41.27;101803.13;5023918;28;20488;-69
2023/08/10 10:36:18;;;;;;;1.95;1.15;;;;;;;26.21;40.95;101810.81;5021750;28;20129;-69
2023/08/10 10:38:47;;;;;;;2.28;1.05;;;;;;;26.41;40.77;101799.78;5026034;28;20480;-69
2023/08/10 10:41:15;;;;;;;7.25;1.30;;;;;;;26.44;43.03;101813.63;5023285;28;20139;-69
2023/08/10 10:43:40;;;;;;;4.43;1.15;;;;;;;26.00;41.48;101814.13;5024712;28;20399;-70
2023/08/10 10:46:06;;;;;;;1.45;1.20;;;;;;;26.32;40.16;101813.69;5025403;28;20044;-69
2023/08/10 10:48:34;;;;;;;2.60;1.20;;;;;;;25.71;41.64;101821.19;5026486;28;20029;-70
2023/08/10 10:51:03;;;;;;;5.97;1.92;;;;;;;25.91;41.54;101820.81;5022908;28;20037;-70
2023/08/10 10:53:28;;;;;;;3.35;1.00;;;;;;;25.73;42.00;101816.44;5020712;28;20061;-69
2023/08/10 10:55:53;;;;;;;5.10;1.35;;;;;;;25.95;42.46;101817.47;5023250;28;20431;-70
2023/08/10 10:58:19;;;;;;;4.53;1.75;;;;;;;25.87;43.59;101815.16;5025680;28;20041;-70
2023/08/10 11:00:45;;;;;;;2.17;1.23;;;;;;;25.88;45.05;101802.69;5021695;28;20040;-70
2023/08/10 11:03:13;;;;;;;2.28;1.38;;;;;;;26.14;42.58;101806.69;5017662;28;20099;-69
2023/08/10 11:05:39;;;;;;;4.68;1.60;;;;;;;26.27;41.67;101806.41;5021643;28;20522;-69
2023/08/10 11:08:08;;;;;;;4.03;1.20;;;;;;;26.30;41.37;101803.28;5023805;28;20034;-70
2023/08/10 11:10:38;;;;;;;4.60;1.30;;;;;;;26.02;42.17;101804.09;5022690;28;20065;-70
2023/08/10 11:13:05;;;;;;;4.93;1.42;;;;;;;25.84;41.28;101805.00;5027563;28;20111;-69
2023/08/10 11:15:31;;;;;;;3.05;1.10;;;;;;;25.95;42.01;101814.03;5012762;28;20049;-69
2023/08/10 11:17:57;;;;;;;3.22;1.00;;;;;;;26.20;41.87;101798.59;5019157;28;20446;-70
2023/08/10 11:20:23;;;;;;;4.22;1.00;;;;;;;26.40;41.85;101805.34;5014592;28;20056;-70